Time;durP1;ratioP1;P1;durP2;ratioP2;P2;SDS_P1;SDS_P2;PMS_P1;PMS_P2;Temp;Humidity;BMP_temperature;BMP_pressure;BME280_temperature;BME280_humidity;BME280_pressure;Samples;Min_cycle;Max_cycle;Signal;HPM_P1;HPM_P2
2023/01/25 00:00:30;;;;;;;2.10;1.98;;;;;;;4.20;62.70;101462.72;4368687;32;32466;-83
2023/01/25 00:02:58;;;;;;;1.27;1.25;;;;;;;4.19;62.50;101466.19;4357006;32;34019;-83
2023/01/25 00:05:25;;;;;;;4.90;3.80;;;;;;;4.25;62.59;101463.63;4355334;32;33212;-83
2023/01/25 00:07:53;;;;;;;2.33;2.20;;;;;;;4.24;62.35;101463.63;4381322;32;33505;-83
2023/01/25 00:10:22;;;;;;;3.87;2.72;;;;;;;4.39;61.70;101465.47;4367551;32;33728;-83
2023/01/25 00:12:50;;;;;;;0.55;0.55;;;;;;;4.59;60.69;101479.59;4354744;32;33407;-83
2023/01/25 00:15:17;;;;;;;5.18;2.30;;;;;;;4.25;61.71;101463.63;4356355;32;33383;-83
2023/01/25 00:17:45;;;;;;;1.95;1.85;;;;;;;4.07;62.47;101476.53;4381459;32;33914;-83
2023/01/25 00:20:13;;;;;;;2.35;2.25;;;;;;;3.98;62.86;101481.66;4357492;32;33598;-83
2023/01/25 00:22:41;;;;;;;1.27;1.17;;;;;;;3.92;63.12;101486.84;4354202;32;34723;-83
2023/01/25 00:25:08;;;;;;;3.10;2.90;;;;;;;3.89;63.22;101477.19;4366960;32;34379;-83
2023/01/25 00:27:36;;;;;;;3.60;2.85;;;;;;;3.87;63.27;101483.28;4353959;32;33503;-83
2023/01/25 00:30:05;;;;;;;4.05;2.28;;;;;;;3.75;63.40;101489.25;4343480;32;32566;-83
2023/01/25 00:32:46;;;;;;;2.25;1.83;;;;;;;3.89;63.44;101492.00;4381375;32;33865;-83
2023/01/25 00:35:14;;;;;;;1.43;1.33;;;;;;;3.92;63.01;101495.53;4356031;32;32868;-82
2023/01/25 00:37:43;;;;;;;1.87;1.77;;;;;;;3.96;62.63;101499.06;4353892;32;32992;-82
2023/01/25 00:40:12;;;;;;;3.90;2.70;;;;;;;3.81;62.64;101495.44;4374807;32;34346;-82
2023/01/25 00:42:40;;;;;;;0.60;0.60;;;;;;;3.71;62.85;101506.66;4355155;32;33338;-82
2023/01/25 00:45:10;;;;;;;2.53;2.33;;;;;;;3.95;62.31;101498.19;4356201;32;32292;-82
2023/01/25 00:47:37;;;;;;;4.00;3.10;;;;;;;3.71;62.79;101493.59;4360763;32;34372;-82
2023/01/25 00:50:06;;;;;;;4.25;3.83;;;;;;;3.69;62.83;101482.22;4343327;32;32576;-82
2023/01/25 00:52:34;;;;;;;4.80;3.22;;;;;;;3.61;63.10;101483.91;4343008;32;33463;-82
2023/01/25 00:55:02;;;;;;;3.25;2.12;;;;;;;3.67;63.66;101489.19;4380845;32;34226;-83
2023/01/25 00:57:30;;;;;;;12.23;4.15;;;;;;;3.97;62.17;101490.38;4356158;32;33701;-82
2023/01/25 00:59:57;;;;;;;2.92;2.72;;;;;;;3.83;62.69;101496.31;4363439;32;34367;-82
2023/01/25 01:02:25;;;;;;;11.77;5.20;;;;;;;3.87;62.33;101493.75;4369376;32;34237;-82
2023/01/25 01:04:55;;;;;;;1.90;1.20;;;;;;;3.76;62.72;101494.50;4357731;32;33134;-82
2023/01/25 01:07:23;;;;;;;2.33;1.95;;;;;;;3.72;62.63;101490.09;4363966;32;34318;-82
2023/01/25 01:09:51;;;;;;;2.72;2.53;;;;;;;3.79;62.50;101501.50;4371639;32;34176;-82
2023/01/25 01:12:19;;;;;;;1.23;1.12;;;;;;;3.75;62.71;101498.00;4354301;32;33863;-82
2023/01/25 01:14:46;;;;;;;3.47;2.90;;;;;;;3.71;63.05;101492.72;4395648;32;32970;-82
2023/01/25 01:17:14;;;;;;;0.98;0.98;;;;;;;3.80;62.80;101498.91;4370852;32;33817;-82
2023/01/25 01:19:42;;;;;;;1.67;1.58;;;;;;;3.81;62.33;101500.66;4356488;32;34343;-82
2023/01/25 01:22:09;;;;;;;2.35;2.25;;;;;;;3.76;62.31;101497.13;4394038;32;34168;-83
2023/01/25 01:24:37;;;;;;;4.57;4.20;;;;;;;3.81;62.16;101495.44;4384288;32;34323;-83
2023/01/25 01:27:04;;;;;;;5.30;4.35;;;;;;;3.75;62.30;101500.59;4394926;32;33900;-83
2023/01/25 01:29:32;;;;;;;3.50;1.95;;;;;;;3.65;62.66;101497.84;4385566;32;32806;-83
2023/01/25 01:32:00;;;;;;;3.03;2.55;;;;;;;3.69;62.92;101503.12;4396254;32;34190;-83
2023/01/25 01:34:27;;;;;;;3.17;2.97;;;;;;;3.82;62.42;101502.41;4372701;32;33377;-83
2023/01/25 01:36:55;;;;;;;7.18;3.10;;;;;;;3.85;61.90;101506.81;4382454;32;32425;-82
2023/01/25 01:39:23;;;;;;;1.62;1.58;;;;;;;3.80;61.72;101506.75;4369506;32;32998;-82
2023/01/25 01:41:51;;;;;;;2.62;2.25;;;;;;;3.65;62.09;101506.56;4370864;32;33773;-83
2023/01/25 01:44:39;;;;;;;4.82;2.72;;;;;;;3.63;62.15;101505.66;4398280;32;34238;-82
2023/01/25 01:47:13;;;;;;;4.90;4.47;;;;;;;3.62;62.03;101503.94;4369413;32;33195;-83
2023/01/25 01:49:41;;;;;;;1.77;1.70;;;;;;;3.53;62.14;101503.81;4375698;32;32998;-82
2023/01/25 01:52:12;;;;;;;2.58;2.37;;;;;;;3.52;62.47;101502.06;4395340;32;33654;-83
2023/01/25 01:54:44;;;;;;;1.52;1.42;;;;;;;3.71;61.84;101508.37;4377521;32;33290;-83
2023/01/25 01:57:13;;;;;;;6.72;2.25;;;;;;;3.62;62.42;101500.44;4379342;32;33848;-82
2023/01/25 01:59:56;;;;;;;9.13;3.62;;;;;;;3.62;62.39;101493.47;4383397;32;34859;-82
2023/01/25 02:02:25;;;;;;;11.02;7.53;;;;;;;3.62;62.62;101493.47;4370081;32;34472;-83
2023/01/25 02:04:57;;;;;;;10.93;2.62;;;;;;;3.39;63.00;101505.38;4382018;32;34046;-82
2023/01/25 02:07:33;;;;;;;1.50;1.42;;;;;;;3.45;63.24;101497.59;4371731;32;32928;-83
2023/01/25 02:10:05;;;;;;;0.73;0.73;;;;;;;3.38;63.52;101498.41;4362378;32;34737;-82
2023/01/25 02:12:33;;;;;;;1.83;1.73;;;;;;;3.74;61.96;101497.94;4370541;32;32079;-82
2023/01/25 02:15:01;;;;;;;2.35;2.17;;;;;;;3.58;62.53;101492.56;4363500;32;32952;-82
2023/01/25 02:17:33;;;;;;;14.73;6.07;;;;;;;3.51;62.55;101482.91;4364324;32;33323;-82
2023/01/25 02:20:07;;;;;;;2.92;2.75;;;;;;;3.34;62.79;101476.59;4363626;32;34503;-82
2023/01/25 02:23:10;;;;;;;5.75;3.58;;;;;;;3.80;61.88;101478.00;4363610;32;32948;-82
2023/01/25 02:25:40;;;;;;;2.15;2.05;;;;;;;3.66;61.79;101479.59;4362425;32;33508;-82
2023/01/25 02:28:24;;;;;;;0.20;0.20;;;;;;;3.69;61.95;101477.00;4351419;32;33724;-82
2023/01/25 02:30:53;;;;;;;3.10;2.67;;;;;;;3.93;61.30;101473.78;4357535;32;33359;-82
2023/01/25 02:33:24;;;;;;;1.92;0.68;;;;;;;3.73;61.91;101476.19;4375654;32;34856;-82
2023/01/25 02:35:57;;;;;;;2.12;1.83;;;;;;;3.65;62.15;101475.19;4360421;32;33952;-81
2023/01/25 02:38:25;;;;;;;1.50;1.42;;;;;;;3.24;63.64;101480.81;4381741;32;33911;-82
2023/01/25 02:41:03;;;;;;;2.53;2.42;;;;;;;3.04;64.38;101482.28;4363019;32;34178;-82
2023/01/25 02:43:33;;;;;;;1.65;1.55;;;;;;;2.93;65.32;101473.41;4363998;32;33187;-82
2023/01/25 02:46:20;;;;;;;3.50;3.20;;;;;;;3.12;64.91;101477.16;4363260;32;32183;-83
2023/01/25 02:48:48;;;;;;;1.70;1.60;;;;;;;3.13;65.08;101471.94;4339019;32;32050;-83
2023/01/25 02:51:15;;;;;;;0.82;0.82;;;;;;;3.07;64.98;101467.53;4375004;32;34096;-83
2023/01/25 02:53:44;;;;;;;2.83;2.62;;;;;;;3.07;64.94;101464.03;4375760;32;34408;-83
2023/01/25 02:56:12;;;;;;;2.17;1.98;;;;;;;3.16;64.98;101448.50;4374682;32;33208;-83
2023/01/25 02:58:39;;;;;;;0.25;0.25;;;;;;;3.19;64.59;101451.16;4362610;32;34608;-82
2023/01/25 03:01:10;;;;;;;2.20;2.10;;;;;;;3.07;64.26;101448.38;4363367;32;33125;-82
2023/01/25 03:03:40;;;;;;;2.85;2.58;;;;;;;3.18;63.80;101445.91;4363641;32;34665;-83
2023/01/25 03:06:08;;;;;;;0.60;0.57;;;;;;;2.92;64.69;101445.59;4362718;32;32535;-83
2023/01/25 03:08:36;;;;;;;1.27;1.05;;;;;;;2.98;63.98;101451.75;4359701;32;31054;-83
2023/01/25 03:11:05;;;;;;;0.17;0.17;;;;;;;2.84;64.60;101453.28;4373788;32;34028;-83
2023/01/25 03:13:34;;;;;;;1.10;1.10;;;;;;;2.85;64.53;101446.34;4363851;32;33727;-83
2023/01/25 03:16:05;;;;;;;1.85;1.75;;;;;;;2.97;64.20;101441.31;4361832;32;33516;-83
2023/01/25 03:18:34;;;;;;;1.58;1.50;;;;;;;2.75;64.89;101442.72;4363388;32;34653;-83
2023/01/25 03:21:05;;;;;;;1.27;1.17;;;;;;;2.89;64.46;101440.31;4350978;32;34802;-83
2023/01/25 03:23:33;;;;;;;1.00;1.00;;;;;;;2.76;64.58;101440.16;4373922;32;33942;-82
2023/01/25 03:26:08;;;;;;;2.12;2.03;;;;;;;2.90;64.07;101439.47;4349876;32;33030;-82
2023/01/25 03:28:38;;;;;;;0.68;0.68;;;;;;;2.98;63.76;101433.47;4350628;32;32630;-83
2023/01/25 03:31:06;;;;;;;1.95;1.83;;;;;;;2.83;64.24;101436.75;4363168;32;34468;-83
2023/01/25 03:33:34;;;;;;;1.10;1.08;;;;;;;2.82;64.37;101440.22;4374696;32;34678;-84
2023/01/25 03:36:03;;;;;;;0.73;0.73;;;;;;;2.81;63.71;101440.22;4363422;32;33236;-83
2023/01/25 03:38:31;;;;;;;2.33;2.17;;;;;;;2.82;64.32;101444.56;4363003;32;33580;-84
2023/01/25 03:40:59;;;;;;;4.70;4.28;;;;;;;2.86;63.98;101445.50;4362422;32;32964;-83
2023/01/25 03:43:28;;;;;;;1.17;1.17;;;;;;;2.85;64.12;101448.94;4350734;32;33494;-83
2023/01/25 03:45:58;;;;;;;1.75;1.65;;;;;;;3.14;63.15;101434.56;4350484;32;32635;-83
2023/01/25 03:48:26;;;;;;;1.65;1.62;;;;;;;3.09;63.17;101444.09;4355569;32;33326;-83
2023/01/25 03:50:56;;;;;;;0.10;0.10;;;;;;;2.85;63.37;101446.34;4355072;32;33017;-83
2023/01/25 03:53:28;;;;;;;3.80;2.37;;;;;;;3.02;63.24;101437.00;4355624;32;33305;-82
2023/01/25 03:56:07;;;;;;;1.73;1.67;;;;;;;2.83;63.79;101439.38;4351063;32;33642;-83
2023/01/25 03:58:38;;;;;;;1.52;0.85;;;;;;;2.86;63.70;101432.47;4338784;32;31719;-83
2023/01/25 04:01:07;;;;;;;4.15;3.80;;;;;;;2.98;63.26;101432.59;4375088;32;33638;-83
2023/01/25 04:03:35;;;;;;;1.05;1.05;;;;;;;2.83;63.88;101436.75;4362719;32;33643;-83
2023/01/25 04:06:04;;;;;;;0.68;0.68;;;;;;;2.72;64.11;101437.47;4338426;32;33845;-83
2023/01/25 04:08:32;;;;;;;2.28;2.17;;;;;;;2.81;64.10;101433.28;4350505;32;34230;-83
2023/01/25 04:11:04;;;;;;;2.70;2.53;;;;;;;2.97;63.25;101430.88;4350283;32;33397;-83
2023/01/25 04:13:35;;;;;;;2.72;2.62;;;;;;;2.95;63.35;101427.38;4362563;32;33427;-83
2023/01/25 04:16:05;;;;;;;0.25;0.25;;;;;;;2.95;63.23;101437.81;4363347;32;33353;-84
2023/01/25 04:18:35;;;;;;;1.33;1.30;;;;;;;2.97;62.95;101429.13;4363233;32;33841;-83
2023/01/25 04:21:03;;;;;;;4.85;3.12;;;;;;;2.81;62.94;101432.41;4362062;32;33573;-83
2023/01/25 04:23:31;;;;;;;2.87;2.67;;;;;;;2.86;62.62;101425.50;4337564;32;32634;-83
2023/01/25 04:26:04;;;;;;;4.03;3.55;;;;;;;2.75;63.26;101433.19;4362559;32;33571;-82
2023/01/25 04:28:33;;;;;;;0.57;0.57;;;;;;;2.72;63.35;101432.25;4349618;32;32967;-82
2023/01/25 04:31:02;;;;;;;0.28;0.28;;;;;;;2.82;62.80;101442.84;4362680;32;34679;-82
2023/01/25 04:33:32;;;;;;;1.25;1.23;;;;;;;2.89;62.25;101440.31;4364388;32;32331;-83
2023/01/25 04:36:00;;;;;;;5.97;2.87;;;;;;;2.62;62.79;101444.28;4364652;32;34265;-83
2023/01/25 04:38:28;;;;;;;1.70;1.60;;;;;;;2.64;63.12;101439.97;4364637;32;34171;-83
2023/01/25 04:40:55;;;;;;;2.05;1.45;;;;;;;2.68;62.61;101441.75;4364586;32;33251;-83
2023/01/25 04:43:24;;;;;;;1.25;1.20;;;;;;;2.67;62.81;101437.41;4364295;32;32885;-83
2023/01/25 04:45:53;;;;;;;4.18;1.90;;;;;;;2.61;63.27;101445.16;4376519;32;33207;-83
2023/01/25 04:48:21;;;;;;;0.28;0.28;;;;;;;2.61;62.63;101439.94;4363626;32;34557;-82
2023/01/25 04:50:49;;;;;;;2.17;1.52;;;;;;;2.84;62.23;101445.47;4352197;32;34079;-83
2023/01/25 04:53:18;;;;;;;3.45;3.22;;;;;;;2.71;62.84;101443.56;4351828;32;33405;-82
2023/01/25 04:55:46;;;;;;;2.37;2.28;;;;;;;2.70;63.22;101437.44;4364612;32;33225;-82
2023/01/25 04:58:14;;;;;;;2.00;1.80;;;;;;;2.87;62.61;101442.03;4376249;32;33914;-82
2023/01/25 05:00:42;;;;;;;0.65;0.65;;;;;;;2.78;62.90;101433.22;4364758;32;34190;-82
2023/01/25 05:03:10;;;;;;;2.45;2.25;;;;;;;2.87;62.86;101436.81;4375354;32;34725;-83
2023/01/25 05:05:38;;;;;;;2.78;1.62;;;;;;;2.96;62.66;101439.56;4363730;32;34743;-84
2023/01/25 05:08:06;;;;;;;0.37;0.37;;;;;;;2.90;62.93;101442.09;4388625;32;33669;-84
2023/01/25 05:10:34;;;;;;;1.05;1.05;;;;;;;2.99;62.92;101436.97;4380798;32;34043;-85
2023/01/25 05:13:07;;;;;;;1.83;1.75;;;;;;;3.12;62.39;101438.00;4365972;32;33878;-84
2023/01/25 05:15:34;;;;;;;0.75;0.75;;;;;;;3.03;63.42;101449.19;4381861;32;32869;-84
2023/01/25 05:18:03;;;;;;;0.80;0.80;;;;;;;3.10;63.17;101444.97;4380264;32;33049;-84
2023/01/25 05:20:31;;;;;;;3.55;2.25;;;;;;;2.98;63.64;101445.66;4396234;32;33784;-85
2023/01/25 05:22:59;;;;;;;2.30;2.15;;;;;;;3.02;63.83;101443.09;4377283;32;34070;-84
2023/01/25 05:28:13;;;;;;;0.95;0.90;;;;;;;3.10;64.08;101444.97;4368556;32;32823;-82
2023/01/25 05:30:43;;;;;;;5.68;2.60;;;;;;;3.10;63.82;101443.22;4392754;32;34666;-83
2023/01/25 05:33:11;;;;;;;1.62;1.52;;;;;;;3.03;64.42;101447.47;4366583;32;32965;-83
2023/01/25 05:35:39;;;;;;;0.93;0.90;;;;;;;3.25;64.05;101440.78;4377651;32;33349;-84
2023/01/25 05:38:06;;;;;;;2.85;1.95;;;;;;;3.17;64.16;101439.81;4376803;32;33727;-84
2023/01/25 05:40:35;;;;;;;2.67;2.47;;;;;;;3.25;64.08;101442.53;4379027;32;33785;-84
2023/01/25 05:43:02;;;;;;;1.85;1.67;;;;;;;3.47;63.44;101441.06;4376289;32;33966;-84
2023/01/25 05:45:32;;;;;;;2.37;2.12;;;;;;;3.53;63.12;101446.34;4374866;32;33477;-84
2023/01/25 05:48:00;;;;;;;1.05;1.05;;;;;;;3.65;62.81;101443.84;4377820;32;33777;-85
2023/01/25 05:50:28;;;;;;;0.45;0.45;;;;;;;3.55;63.06;101439.41;4375367;32;33690;-84
2023/01/25 05:52:57;;;;;;;1.73;1.62;;;;;;;3.95;61.63;101434.59;4388428;32;34334;-85
2023/01/25 05:55:25;;;;;;;4.12;2.80;;;;;;;3.49;62.99;101434.13;4394022;32;32632;-84
2023/01/25 05:57:56;;;;;;;1.27;1.17;;;;;;;3.23;64.34;101439.91;4367599;32;34525;-82
2023/01/25 06:00:24;;;;;;;4.50;1.85;;;;;;;3.42;63.78;101442.72;4349653;32;33242;-83
2023/01/25 06:02:52;;;;;;;1.85;1.55;;;;;;;3.39;64.19;101442.72;4375682;32;34074;-82
2023/01/25 06:05:20;;;;;;;3.00;2.40;;;;;;;3.37;64.27;101447.91;4365015;32;33345;-84
2023/01/25 06:07:48;;;;;;;1.85;1.37;;;;;;;3.41;64.35;101452.28;4369088;32;32679;-82
2023/01/25 06:10:18;;;;;;;3.70;3.37;;;;;;;3.77;63.17;101446.63;4368937;32;33275;-83
2023/01/25 06:12:46;;;;;;;2.67;2.47;;;;;;;3.69;63.39;101437.81;4368543;32;33882;-86
2023/01/25 06:15:14;;;;;;;0.82;0.82;;;;;;;3.22;64.57;101440.75;4366566;32;32625;-85
2023/01/25 06:17:43;;;;;;;2.10;2.00;;;;;;;3.56;64.03;101441.13;4392740;32;33204;-85
2023/01/25 06:20:11;;;;;;;3.58;3.37;;;;;;;3.77;63.25;101441.38;4380764;32;33252;-85
2023/01/25 06:22:40;;;;;;;1.08;1.05;;;;;;;3.60;63.58;101448.16;4369599;32;32713;-85
2023/01/25 06:25:08;;;;;;;4.53;3.70;;;;;;;3.85;63.14;101458.03;4367207;32;33403;-85
2023/01/25 06:27:36;;;;;;;0.88;0.88;;;;;;;3.49;64.28;101455.88;4378801;32;34616;-86
2023/01/25 06:30:04;;;;;;;3.20;1.50;;;;;;;3.51;64.80;101463.72;4375942;32;31938;-85
2023/01/25 06:32:32;;;;;;;0.20;0.20;;;;;;;3.49;64.84;101462.84;4362663;32;33235;-85
2023/01/25 06:34:59;;;;;;;2.15;2.05;;;;;;;3.62;64.73;101467.34;4364611;32;33385;-85
2023/01/25 06:37:27;;;;;;;1.02;1.02;;;;;;;3.66;64.55;101463.94;4353394;32;31315;-85
2023/01/25 06:39:55;;;;;;;2.40;2.20;;;;;;;3.88;64.12;101466.75;4377779;32;32652;-85
2023/01/25 06:42:23;;;;;;;2.22;2.08;;;;;;;3.77;64.46;101471.88;4373299;32;33237;-85
2023/01/25 06:44:51;;;;;;;2.60;1.90;;;;;;;4.09;63.43;101466.97;4379199;32;33739;-85
2023/01/25 06:47:19;;;;;;;1.27;1.20;;;;;;;3.91;64.02;101472.88;4376021;32;33805;-85
2023/01/25 06:49:47;;;;;;;8.85;3.42;;;;;;;3.91;63.94;101466.78;4388909;32;33790;-85
2023/01/25 06:52:14;;;;;;;2.53;2.40;;;;;;;3.96;64.23;101463.34;4379924;32;33808;-85
2023/01/25 06:54:42;;;;;;;1.20;1.15;;;;;;;4.11;63.56;101467.84;4362336;32;32696;-85
2023/01/25 06:57:10;;;;;;;2.00;1.90;;;;;;;4.09;63.74;101474.81;4391107;32;34272;-85
2023/01/25 06:59:38;;;;;;;1.05;1.02;;;;;;;4.11;63.82;101467.84;4371610;32;33153;-85
2023/01/25 07:02:06;;;;;;;1.98;1.87;;;;;;;4.19;63.81;101462.72;4384928;32;34169;-85
2023/01/25 07:04:34;;;;;;;1.12;1.12;;;;;;;4.00;64.24;101465.13;4371992;32;32240;-85
2023/01/25 07:07:02;;;;;;;2.83;2.50;;;;;;;3.97;64.74;101459.00;4353817;32;32829;-85
2023/01/25 07:09:29;;;;;;;5.65;1.80;;;;;;;4.05;64.69;101462.56;4349625;32;33029;-86
2023/01/25 07:11:57;;;;;;;2.50;2.30;;;;;;;4.08;64.76;101468.72;4366663;32;36126;-85
2023/01/25 07:14:24;;;;;;;2.30;2.00;;;;;;;4.39;63.70;101468.09;4353376;32;34760;-87
2023/01/25 07:16:52;;;;;;;1.70;1.60;;;;;;;3.93;65.46;101462.44;4352119;32;34743;-83
2023/01/25 07:19:20;;;;;;;0.17;0.17;;;;;;;3.93;66.17;101458.09;4361723;32;33342;-83
2023/01/25 07:21:47;;;;;;;1.15;1.15;;;;;;;4.00;65.94;101465.13;4378620;32;34437;-83
2023/01/25 07:24:17;;;;;;;4.25;3.00;;;;;;;4.25;65.28;101463.63;4365140;32;32660;-83
2023/01/25 07:26:46;;;;;;;0.93;0.93;;;;;;;4.34;65.29;101455.84;4375436;32;34213;-83
2023/01/25 07:29:15;;;;;;;5.05;3.20;;;;;;;4.45;65.20;101453.31;4355829;32;33946;-83
2023/01/25 07:31:43;;;;;;;1.73;1.25;;;;;;;4.46;65.33;101459.41;4343439;32;33640;-83
2023/01/25 07:34:12;;;;;;;1.17;1.17;;;;;;;4.39;65.77;101463.75;4364835;32;34041;-83
2023/01/25 07:36:39;;;;;;;2.85;1.15;;;;;;;4.48;66.05;101458.59;4363122;32;33484;-83
2023/01/25 07:39:10;;;;;;;1.83;1.73;;;;;;;4.68;65.33;101460.47;4356881;32;33017;-81
2023/01/25 07:41:38;;;;;;;2.90;2.53;;;;;;;4.88;64.30;101459.72;4376638;32;33491;-83
2023/01/25 07:44:10;;;;;;;1.33;1.33;;;;;;;4.78;65.05;101468.38;4340521;32;32913;-82
2023/01/25 07:46:38;;;;;;;1.35;1.27;;;;;;;4.81;65.10;101460.56;4378523;32;34406;-83
2023/01/25 07:49:06;;;;;;;2.00;1.90;;;;;;;4.80;65.47;101456.19;4354243;32;33252;-83
2023/01/25 07:51:33;;;;;;;0.70;0.70;;;;;;;4.78;65.52;101459.66;4369142;32;32003;-83
2023/01/25 07:54:03;;;;;;;3.25;2.67;;;;;;;5.13;64.46;101458.13;4365027;32;30887;-82
2023/01/25 07:56:39;;;;;;;2.92;2.75;;;;;;;5.01;64.93;101455.44;4362810;32;33924;-82
2023/01/25 07:59:08;;;;;;;1.98;1.83;;;;;;;5.24;64.32;101447.72;4348966;32;33798;-82
2023/01/25 08:01:38;;;;;;;0.85;0.85;;;;;;;5.21;64.64;101446.81;4350608;32;35913;-82
2023/01/25 08:04:06;;;;;;;0.37;0.37;;;;;;;5.32;64.38;101451.25;4361408;32;33364;-82
2023/01/25 08:06:37;;;;;;;0.62;0.62;;;;;;;5.45;63.97;101451.28;4348355;32;33961;-82
2023/01/25 08:09:18;;;;;;;1.75;1.65;;;;;;;5.32;64.41;101455.59;4361194;32;20160;-83
2023/01/25 08:11:48;;;;;;;2.10;2.00;;;;;;;5.32;64.38;101456.47;4378688;32;34239;-82
2023/01/25 08:14:16;;;;;;;0.50;0.50;;;;;;;5.29;64.77;101450.34;4359493;32;32024;-83
2023/01/25 08:16:44;;;;;;;1.30;1.27;;;;;;;5.30;64.75;101450.34;4352617;32;33416;-82
2023/01/25 08:19:12;;;;;;;1.70;1.60;;;;;;;5.35;64.65;101456.47;4378290;32;33908;-82
2023/01/25 08:21:40;;;;;;;1.45;1.35;;;;;;;5.42;64.56;101452.16;4363337;32;33527;-82
2023/01/25 08:24:08;;;;;;;1.25;0.60;;;;;;;5.39;64.70;101453.00;4358235;32;33952;-81
2023/01/25 08:26:36;;;;;;;1.80;1.70;;;;;;;5.57;64.31;101446.09;4350904;32;32592;-82
2023/01/25 08:29:05;;;;;;;1.55;1.45;;;;;;;5.47;64.78;101454.78;4357123;32;34312;-82
2023/01/25 08:31:34;;;;;;;4.50;2.03;;;;;;;5.49;64.81;101453.03;4366284;32;34252;-82
2023/01/25 08:34:02;;;;;;;0.68;0.68;;;;;;;5.68;64.32;101446.97;4353646;32;32502;-82
2023/01/25 08:36:30;;;;;;;1.45;1.40;;;;;;;5.61;64.43;101443.47;4363894;32;34110;-84
2023/01/25 08:39:00;;;;;;;1.50;1.40;;;;;;;5.58;64.82;101445.22;4365389;32;33252;-82
2023/01/25 08:41:29;;;;;;;0.68;0.68;;;;;;;5.73;64.40;101445.25;4360432;32;33116;-81
2023/01/25 08:43:57;;;;;;;1.05;1.05;;;;;;;5.87;64.06;101440.91;4347188;32;32503;-82
2023/01/25 08:46:26;;;;;;;2.20;2.00;;;;;;;5.92;63.69;101448.81;4377272;32;32201;-82
2023/01/25 08:49:00;;;;;;;2.28;2.08;;;;;;;5.86;63.83;101439.16;4363839;32;33149;-82
2023/01/25 08:51:30;;;;;;;1.27;1.17;;;;;;;5.99;63.97;101433.97;4371698;32;33624;-82
2023/01/25 08:54:03;;;;;;;5.28;1.17;;;;;;;6.13;63.61;101430.50;4369482;32;33210;-82
2023/01/25 08:56:30;;;;;;;0.70;0.70;;;;;;;6.18;63.36;101429.63;4355371;32;32017;-82
2023/01/25 08:58:58;;;;;;;1.08;1.08;;;;;;;6.11;63.54;101424.34;4370607;32;33360;-82
2023/01/25 09:01:26;;;;;;;3.00;1.95;;;;;;;6.01;63.26;101429.59;4382497;32;33757;-82
2023/01/25 09:03:53;;;;;;;1.37;1.23;;;;;;;6.07;62.14;101426.97;4356156;32;31438;-82
2023/01/25 09:06:21;;;;;;;1.33;1.10;;;;;;;6.13;62.04;101424.38;4366355;32;33101;-82
2023/01/25 09:08:49;;;;;;;1.50;1.40;;;;;;;5.79;63.04;101431.28;4361117;32;33349;-82
2023/01/25 09:11:19;;;;;;;1.67;1.58;;;;;;;5.68;63.27;101420.78;4347660;32;33192;-82
2023/01/25 09:13:47;;;;;;;1.37;1.27;;;;;;;5.45;64.04;101425.06;4361814;32;33253;-82
2023/01/25 09:16:27;;;;;;;0.43;0.43;;;;;;;5.76;62.94;101421.66;4373617;32;34639;-81
2023/01/25 09:18:57;;;;;;;4.87;2.42;;;;;;;5.90;62.91;101419.94;4350896;32;34749;-82
2023/01/25 09:21:25;;;;;;;2.10;1.37;;;;;;;5.59;63.12;101424.25;4364166;32;33733;-82
2023/01/25 09:23:53;;;;;;;0.50;0.50;;;;;;;5.62;63.10;101418.16;4350857;32;33390;-82
2023/01/25 09:26:38;;;;;;;0.22;0.22;;;;;;;5.78;62.91;101411.19;4352831;32;33339;-82
2023/01/25 09:29:06;;;;;;;2.37;1.08;;;;;;;5.58;63.23;101413.75;4363232;32;34314;-82
2023/01/25 09:31:38;;;;;;;0.20;0.20;;;;;;;5.62;63.34;101410.28;4364295;32;34797;-82
2023/01/25 09:34:10;;;;;;;0.25;0.25;;;;;;;5.81;63.36;101409.44;4364179;32;33758;-82
2023/01/25 09:36:38;;;;;;;1.90;1.25;;;;;;;5.77;63.25;101418.16;4356461;32;33291;-82
2023/01/25 09:39:05;;;;;;;0.57;0.57;;;;;;;5.88;62.67;101408.56;4375278;32;33703;-82
2023/01/25 09:41:54;;;;;;;1.40;1.12;;;;;;;6.22;61.20;101408.66;4350954;32;33074;-82
2023/01/25 09:44:56;;;;;;;1.40;0.98;;;;;;;5.32;63.59;101408.47;4374161;32;34325;-83
2023/01/25 09:47:29;;;;;;;1.35;0.98;;;;;;;5.29;64.25;101406.69;4375221;32;34435;-82
2023/01/25 09:50:00;;;;;;;1.15;1.15;;;;;;;5.18;64.41;101405.78;4366691;32;33421;-83
2023/01/25 09:52:42;;;;;;;1.55;1.45;;;;;;;5.93;62.26;101402.50;4362602;32;33054;-83
2023/01/25 09:55:16;;;;;;;0.00;0.00;;;;;;;4.97;64.62;101400.44;4363175;32;32901;-82
2023/01/25 09:57:44;;;;;;;0.37;0.37;;;;;;;4.90;65.18;101396.94;4350242;32;33056;-82
2023/01/25 10:00:35;;;;;;;1.65;1.48;;;;;;;5.02;64.67;101390.88;4362889;32;34857;-83
2023/01/25 10:03:22;;;;;;;2.55;1.67;;;;;;;5.55;63.78;101388.41;4363077;32;33841;-82
2023/01/25 10:05:52;;;;;;;1.75;1.40;;;;;;;5.19;64.39;101386.59;4363393;32;33613;-81
2023/01/25 10:08:29;;;;;;;0.85;0.82;;;;;;;5.62;63.52;101381.47;4358665;32;33393;-81
2023/01/25 10:11:11;;;;;;;0.65;0.65;;;;;;;5.73;63.58;101377.09;4361005;32;33438;-81
2023/01/25 10:13:38;;;;;;;0.35;0.35;;;;;;;5.62;64.27;101363.13;4372865;32;34110;-81
2023/01/25 10:16:14;;;;;;;2.10;1.98;;;;;;;5.28;64.31;101359.56;4348118;32;33066;-82
2023/01/25 10:19:01;;;;;;;3.10;2.30;;;;;;;5.35;64.45;101356.06;4361872;32;33446;-82
2023/01/25 10:21:33;;;;;;;6.22;4.10;;;;;;;5.67;63.17;101356.13;4372387;32;34277;-82
2023/01/25 10:24:13;;;;;;;0.52;0.52;;;;;;;5.61;63.85;101345.66;4371487;32;33411;-81
2023/01/25 10:26:42;;;;;;;0.95;0.75;;;;;;;5.74;63.44;101355.25;4371998;32;31876;-81
2023/01/25 10:29:18;;;;;;;2.40;1.65;;;;;;;5.76;63.13;101352.66;4359328;32;34201;-81
2023/01/25 10:31:53;;;;;;;0.75;0.73;;;;;;;5.95;62.00;101343.09;4349054;32;33422;-81
2023/01/25 10:34:32;;;;;;;1.50;1.40;;;;;;;6.07;62.24;101343.06;4360266;32;32857;-82
2023/01/25 10:37:13;;;;;;;0.32;0.32;;;;;;;5.16;64.83;101349.03;4359176;32;32065;-82
2023/01/25 10:39:55;;;;;;;4.37;1.87;;;;;;;5.43;63.98;101341.25;4359215;32;32911;-81
2023/01/25 10:42:25;;;;;;;1.42;1.27;;;;;;;4.92;65.31;101339.34;4358254;32;33130;-81
2023/01/25 10:44:53;;;;;;;1.67;1.33;;;;;;;5.57;63.86;101330.78;4359778;32;33520;-81
2023/01/25 10:47:28;;;;;;;1.87;0.85;;;;;;;5.75;62.90;101336.06;4361059;32;33009;-81
2023/01/25 10:49:57;;;;;;;9.18;2.47;;;;;;;5.70;63.53;101327.31;4371142;32;33852;-81
2023/01/25 10:52:26;;;;;;;0.82;0.82;;;;;;;6.04;61.93;101320.34;4359848;32;33349;-81
2023/01/25 10:55:06;;;;;;;1.02;1.02;;;;;;;6.01;61.62;101324.72;4347482;32;33293;-81
2023/01/25 10:57:35;;;;;;;3.08;2.03;;;;;;;5.66;63.02;101325.56;4373570;32;33372;-81
2023/01/25 11:00:09;;;;;;;1.80;1.70;;;;;;;5.96;62.53;101318.59;4359718;32;33172;-81
2023/01/25 11:02:46;;;;;;;1.90;1.40;;;;;;;5.87;62.61;101322.94;4372197;32;34990;-81
2023/01/25 11:05:27;;;;;;;0.57;0.25;;;;;;;6.38;61.10;101313.28;4359108;32;33721;-81
2023/01/25 11:07:56;;;;;;;0.80;0.80;;;;;;;6.59;60.26;101311.47;4367985;32;33042;-81
2023/01/25 11:10:30;;;;;;;1.45;1.35;;;;;;;6.05;61.08;101315.97;4373456;32;33185;-81
2023/01/25 11:13:16;;;;;;;1.33;1.27;;;;;;;6.13;61.07;101298.50;4372531;32;33325;-81
2023/01/25 11:15:55;;;;;;;0.28;0.25;;;;;;;6.15;61.21;101296.72;4376570;32;33953;-81
2023/01/25 11:18:30;;;;;;;0.57;0.57;;;;;;;5.76;61.65;101298.47;4373886;32;33605;-81
2023/01/25 11:21:17;;;;;;;1.87;1.77;;;;;;;5.71;62.63;101297.63;4373024;32;33518;-81
2023/01/25 11:24:24;;;;;;;1.15;0.93;;;;;;;5.67;63.07;101295.84;4387032;32;33710;-82
2023/01/25 11:27:29;;;;;;;0.35;0.35;;;;;;;6.26;61.22;101284.44;4365429;32;32700;-81
2023/01/25 11:30:26;;;;;;;1.87;1.55;;;;;;;6.14;62.13;101279.25;4374658;32;34420;-81
2023/01/25 11:32:53;;;;;;;1.12;1.12;;;;;;;6.36;60.75;101277.44;4373322;32;33201;-81
2023/01/25 11:35:31;;;;;;;1.40;1.30;;;;;;;6.45;60.00;101272.16;4391859;32;33158;-82
2023/01/25 11:38:13;;;;;;;1.40;0.88;;;;;;;6.37;60.74;101264.34;4362690;32;34246;-81
2023/01/25 11:40:46;;;;;;;1.27;1.20;;;;;;;6.10;61.87;101264.41;4382203;32;34269;-82
2023/01/25 11:43:42;;;;;;;0.70;0.70;;;;;;;6.20;61.34;101255.62;4375718;32;33947;-82
2023/01/25 11:46:13;;;;;;;0.73;0.73;;;;;;;6.20;60.81;101250.37;4376188;32;34095;-81
2023/01/25 11:49:03;;;;;;;0.82;0.82;;;;;;;6.09;61.05;101254.78;4372873;32;34853;-82
2023/01/25 11:51:39;;;;;;;1.65;1.55;;;;;;;6.61;60.16;101237.13;4382055;32;32532;-81
2023/01/25 11:54:48;;;;;;;1.20;1.20;;;;;;;6.64;59.72;101233.59;4363282;32;33836;-81